Time;durP1;ratioP1;P1;durP2;ratioP2;P2;SDS_P1;SDS_P2;PMS_P1;PMS_P2;Temp;Humidity;BMP_temperature;BMP_pressure;BME280_temperature;BME280_humidity;BME280_pressure;Samples;Min_cycle;Max_cycle;Signal;HPM_P1;HPM_P2
2022/03/26 00:01:18;;;;;;;13.07;8.60;;;;;;;9.08;68.05;96904.91;5079281;28;20258;-82
2022/03/26 00:03:45;;;;;;;12.27;8.20;;;;;;;9.20;66.31;96918.59;5073849;28;20207;-82
2022/03/26 00:06:14;;;;;;;13.20;8.53;;;;;;;9.30;64.64;96910.91;5069501;28;20264;-82
2022/03/26 00:08:41;;;;;;;10.93;7.33;;;;;;;9.36;64.12;96920.03;5081278;28;20201;-82
2022/03/26 00:11:08;;;;;;;15.13;7.77;;;;;;;9.36;64.17;96920.84;5067367;28;20249;-82
2022/03/26 00:13:35;;;;;;;13.30;8.77;;;;;;;9.38;64.47;96915.25;5071485;28;20221;-82
2022/03/26 00:16:02;;;;;;;12.17;8.07;;;;;;;9.32;65.03;96916.09;5081161;28;20221;-83
2022/03/26 00:18:29;;;;;;;14.23;8.63;;;;;;;9.20;65.49;96910.50;5090807;28;20234;-82
2022/03/26 00:20:56;;;;;;;14.83;8.80;;;;;;;9.21;65.82;96916.72;5077288;28;20201;-82
2022/03/26 00:23:25;;;;;;;11.30;8.60;;;;;;;9.11;65.17;96909.88;5067405;28;20211;-83
2022/03/26 00:25:52;;;;;;;13.80;8.87;;;;;;;9.08;65.87;96907.63;5074384;28;20278;-82
2022/03/26 00:28:19;;;;;;;12.33;8.47;;;;;;;9.06;66.04;96920.47;5083041;28;20205;-82
2022/03/26 00:30:46;;;;;;;13.07;8.80;;;;;;;9.04;65.22;96900.97;5072423;28;20217;-82
2022/03/26 00:33:13;;;;;;;13.47;9.07;;;;;;;9.12;64.00;96908.00;5079850;28;20244;-82
2022/03/26 00:35:41;;;;;;;13.77;8.47;;;;;;;9.26;62.58;96908.84;5090843;28;20204;-82
2022/03/26 00:38:08;;;;;;;13.30;8.87;;;;;;;9.29;62.60;96911.13;5071153;28;20197;-82
2022/03/26 00:40:36;;;;;;;13.43;8.50;;;;;;;9.35;61.62;96913.84;5072793;28;20215;-82
2022/03/26 00:43:04;;;;;;;11.90;7.90;;;;;;;9.48;60.05;96910.28;5072657;28;20206;-82
2022/03/26 00:45:31;;;;;;;12.37;8.37;;;;;;;9.59;59.35;96917.72;5080057;28;20267;-82
2022/03/26 00:48:00;;;;;;;11.87;8.73;;;;;;;9.65;59.12;96922.28;5082006;28;20205;-82
2022/03/26 00:50:27;;;;;;;13.93;9.27;;;;;;;9.62;59.86;96911.91;5081809;28;20227;-82
2022/03/26 00:52:54;;;;;;;14.13;9.00;;;;;;;9.52;61.86;96914.22;5074223;28;20204;-82
2022/03/26 00:55:21;;;;;;;13.73;9.50;;;;;;;9.29;64.11;96913.81;5075229;28;20234;-82
2022/03/26 00:57:50;;;;;;;13.30;9.67;;;;;;;9.07;65.69;96915.91;5076553;28;20201;-83
2022/03/26 01:00:17;;;;;;;16.70;9.53;;;;;;;8.95;66.14;96910.28;5083288;28;20207;-82
2022/03/26 01:02:44;;;;;;;14.43;9.47;;;;;;;8.94;66.86;96905.94;5080475;28;20300;-82
2022/03/26 01:05:12;;;;;;;16.07;10.03;;;;;;;8.76;67.92;96916.50;5084279;28;20290;-82
2022/03/26 01:07:39;;;;;;;17.00;11.13;;;;;;;8.68;68.38;96924.75;5075687;28;20205;-82
2022/03/26 01:10:07;;;;;;;16.97;10.50;;;;;;;8.47;69.77;96916.84;5072792;28;20201;-82
2022/03/26 01:12:35;;;;;;;18.20;10.57;;;;;;;8.40;70.19;96907.94;5077511;28;20232;-83
2022/03/26 01:15:04;;;;;;;20.10;10.77;;;;;;;8.40;71.02;96911.44;5068266;28;20578;-82
2022/03/26 01:17:32;;;;;;;13.03;9.03;;;;;;;8.37;70.00;96911.03;5074736;28;20232;-82
2022/03/26 01:20:00;;;;;;;12.67;8.73;;;;;;;8.39;69.43;96906.28;5079401;28;20278;-82
2022/03/26 01:22:27;;;;;;;13.57;9.27;;;;;;;8.40;69.35;96906.06;5069167;28;20255;-82
2022/03/26 01:24:55;;;;;;;12.73;8.73;;;;;;;8.46;69.72;96901.72;5079002;28;20263;-82
2022/03/26 01:27:22;;;;;;;13.80;9.07;;;;;;;8.31;69.72;96894.66;5075331;28;20200;-82
2022/03/26 01:29:49;;;;;;;14.13;9.13;;;;;;;8.27;70.63;96905.97;5073503;28;20223;-82
2022/03/26 01:32:17;;;;;;;16.40;10.60;;;;;;;8.24;71.65;96898.34;5087285;28;20211;-82
2022/03/26 01:34:46;;;;;;;15.37;10.80;;;;;;;8.11;72.54;96904.47;5086189;28;20224;-82
2022/03/26 01:37:14;;;;;;;14.23;10.37;;;;;;;8.09;72.58;96905.72;5072016;28;20197;-82
2022/03/26 01:39:41;;;;;;;14.03;8.67;;;;;;;8.38;67.55;96901.91;5082276;28;20213;-82
2022/03/26 01:42:08;;;;;;;15.17;9.87;;;;;;;8.53;65.23;96891.81;5063560;28;20244;-82
2022/03/26 01:44:38;;;;;;;14.27;9.03;;;;;;;8.67;64.12;96888.94;5085914;28;20292;-82
2022/03/26 01:47:06;;;;;;;12.27;8.80;;;;;;;8.85;61.63;96885.63;5080864;28;20290;-82
2022/03/26 01:49:34;;;;;;;13.43;8.80;;;;;;;9.23;58.25;96882.31;5088920;28;20204;-82
2022/03/26 01:52:02;;;;;;;15.60;9.40;;;;;;;9.30;57.82;96880.44;5082135;28;20202;-82
2022/03/26 01:54:30;;;;;;;15.97;9.07;;;;;;;9.36;57.88;96882.28;5079414;28;20236;-82
2022/03/26 01:56:58;;;;;;;11.37;8.63;;;;;;;9.38;57.76;96882.91;5080064;28;20211;-82
2022/03/26 01:59:25;;;;;;;13.03;9.17;;;;;;;9.38;58.64;96877.53;5073523;28;20210;-82
2022/03/26 02:01:52;;;;;;;16.47;9.50;;;;;;;9.33;60.67;96880.03;5081811;28;20228;-82
2022/03/26 02:04:23;;;;;;;16.30;10.47;;;;;;;9.06;63.33;96887.31;5084383;28;20237;-82
2022/03/26 02:06:52;;;;;;;17.03;10.77;;;;;;;8.89;62.46;96886.88;5080712;28;20271;-82
2022/03/26 02:09:19;;;;;;;15.87;10.07;;;;;;;8.83;63.77;96892.28;5073487;28;20209;-82
2022/03/26 02:11:47;;;;;;;13.87;9.37;;;;;;;8.69;64.03;96880.63;5086035;28;20247;-82
2022/03/26 02:14:15;;;;;;;13.67;9.80;;;;;;;8.59;65.88;96885.63;5081556;28;20311;-82
2022/03/26 02:16:44;;;;;;;13.97;9.77;;;;;;;8.63;60.52;96870.69;5078822;28;20221;-83
2022/03/26 02:19:11;;;;;;;16.40;9.80;;;;;;;8.74;59.72;96870.09;5086120;28;20468;-82
2022/03/26 02:21:40;;;;;;;17.67;9.30;;;;;;;8.91;57.08;96859.75;5081137;28;20251;-83
2022/03/26 02:24:08;;;;;;;14.60;9.03;;;;;;;9.06;57.36;96877.34;5086076;28;20209;-82
2022/03/26 02:26:36;;;;;;;15.30;10.00;;;;;;;9.09;59.21;96874.25;5073707;28;20301;-82
2022/03/26 02:29:09;;;;;;;16.53;10.50;;;;;;;8.97;62.52;96872.38;5071694;28;20214;-83
2022/03/26 02:31:37;;;;;;;15.77;10.07;;;;;;;8.84;63.36;96873.22;5070929;28;20229;-83
2022/03/26 02:34:06;;;;;;;20.20;10.83;;;;;;;8.71;64.43;96874.03;5072673;28;20217;-82
2022/03/26 02:36:33;;;;;;;17.00;10.67;;;;;;;8.59;64.96;96877.53;5080384;28;20221;-82
2022/03/26 02:39:03;;;;;;;21.57;11.57;;;;;;;8.49;66.42;96877.09;5079004;28;20204;-82
2022/03/26 02:41:31;;;;;;;18.13;11.50;;;;;;;8.25;67.87;96868.50;5078819;28;20259;-82
2022/03/26 02:43:58;;;;;;;16.90;11.33;;;;;;;8.13;68.92;96875.53;5079240;28;20235;-82
2022/03/26 02:46:25;;;;;;;17.60;11.47;;;;;;;7.98;70.01;96872.19;5079083;28;20221;-82
2022/03/26 02:48:52;;;;;;;18.03;12.47;;;;;;;7.84;70.43;96868.59;5072446;28;20210;-82
2022/03/26 02:51:19;;;;;;;20.00;13.23;;;;;;;7.63;71.91;96884.00;5081779;28;20220;-82
2022/03/26 02:53:46;;;;;;;22.20;13.17;;;;;;;7.47;73.71;96875.25;5081850;28;20212;-82
2022/03/26 02:56:14;;;;;;;25.30;12.93;;;;;;;7.32;74.40;96882.56;5071471;28;20232;-82
2022/03/26 02:58:42;;;;;;;18.97;12.83;;;;;;;7.26;75.64;96877.97;5071383;28;20210;-82
2022/03/26 03:01:09;;;;;;;21.30;13.00;;;;;;;7.26;76.12;96869.09;5083654;28;20205;-82
2022/03/26 03:03:36;;;;;;;20.50;12.97;;;;;;;7.25;75.88;96873.63;5070108;28;20202;-82
2022/03/26 03:06:04;;;;;;;18.83;12.73;;;;;;;7.30;76.19;96887.31;5079206;28;20211;-82
2022/03/26 03:08:32;;;;;;;20.20;12.87;;;;;;;7.20;75.84;96889.53;5082070;28;20193;-82
2022/03/26 03:10:59;;;;;;;18.60;11.10;;;;;;;7.24;75.98;96882.72;5079352;28;20224;-82
2022/03/26 03:13:27;;;;;;;18.97;11.90;;;;;;;7.19;75.62;96875.25;5071787;28;20197;-82
2022/03/26 03:15:58;;;;;;;19.53;11.97;;;;;;;7.19;76.17;96885.16;5080496;28;20221;-82
2022/03/26 03:18:25;;;;;;;18.40;11.87;;;;;;;7.18;76.39;96888.88;5077234;28;20236;-82
2022/03/26 03:20:52;;;;;;;18.03;11.03;;;;;;;7.20;76.73;96889.53;5072809;28;20505;-82
2022/03/26 03:23:20;;;;;;;20.57;12.30;;;;;;;7.14;76.21;96884.94;5074672;28;20225;-83
2022/03/26 03:25:47;;;;;;;17.67;11.63;;;;;;;7.11;76.44;96879.94;5079323;28;20202;-83
2022/03/26 03:28:14;;;;;;;14.77;10.83;;;;;;;7.13;76.78;96888.66;5090610;28;20532;-82
2022/03/26 03:30:43;;;;;;;20.70;12.10;;;;;;;7.10;76.76;96884.50;5067977;28;20563;-82
2022/03/26 03:33:10;;;;;;;18.33;11.13;;;;;;;6.92;76.45;96880.63;5082431;28;20520;-82
2022/03/26 03:35:37;;;;;;;17.77;10.97;;;;;;;6.87;77.10;96869.66;5082710;28;20274;-82
2022/03/26 03:38:05;;;;;;;17.33;11.27;;;;;;;6.92;77.48;96892.19;5071525;28;20220;-82
2022/03/26 03:40:32;;;;;;;17.60;11.53;;;;;;;6.88;76.87;96884.75;5086362;28;20207;-82
2022/03/26 03:43:00;;;;;;;16.77;11.67;;;;;;;6.84;77.03;96897.69;5079945;28;20300;-82
2022/03/26 03:45:27;;;;;;;17.63;11.97;;;;;;;6.75;78.57;96893.50;5082148;28;20292;-81
2022/03/26 03:47:56;;;;;;;15.60;10.60;;;;;;;6.73;78.63;96891.00;5083124;28;20205;-82
2022/03/26 03:50:23;;;;;;;15.23;10.93;;;;;;;6.66;77.78;96900.00;5080152;28;20205;-82
2022/03/26 03:52:50;;;;;;;17.53;11.27;;;;;;;6.64;78.91;96897.50;5069703;28;20216;-82
2022/03/26 03:55:17;;;;;;;15.20;10.60;;;;;;;6.73;79.28;96904.41;5077612;28;20221;-82
2022/03/26 03:57:45;;;;;;;16.77;11.37;;;;;;;6.72;79.14;96916.16;5071682;28;20212;-82
2022/03/26 04:00:15;;;;;;;19.10;11.40;;;;;;;6.68;79.39;96909.53;5072072;28;20210;-82
2022/03/26 04:02:42;;;;;;;16.43;11.13;;;;;;;6.65;79.94;96901.88;5073666;28;20253;-82
2022/03/26 04:05:11;;;;;;;17.23;11.10;;;;;;;6.64;80.24;96904.72;5075759;28;20201;-82
2022/03/26 04:07:39;;;;;;;18.67;12.03;;;;;;;6.54;82.17;96901.56;5083027;28;20196;-82
2022/03/26 04:10:08;;;;;;;17.70;12.07;;;;;;;6.51;82.27;96894.72;5073258;28;20200;-82
2022/03/26 04:12:35;;;;;;;15.27;10.27;;;;;;;6.56;81.43;96897.63;5078868;28;20248;-82
2022/03/26 04:15:02;;;;;;;17.73;11.17;;;;;;;6.54;81.89;96894.34;5083284;28;20232;-82
2022/03/26 04:17:29;;;;;;;17.17;11.43;;;;;;;6.56;83.11;96896.81;5079426;28;20262;-82
2022/03/26 04:19:56;;;;;;;14.27;10.50;;;;;;;6.52;82.00;96901.75;5072512;28;20198;-82
2022/03/26 04:22:25;;;;;;;15.40;9.90;;;;;;;6.53;80.74;96897.22;5076815;28;20192;-82
2022/03/26 04:24:52;;;;;;;16.50;10.50;;;;;;;6.49;80.05;96899.44;5081014;28;20206;-82
2022/03/26 04:27:19;;;;;;;17.50;10.57;;;;;;;6.41;80.31;96899.56;5070960;28;20282;-82
2022/03/26 04:29:46;;;;;;;15.07;10.37;;;;;;;6.44;81.23;96897.34;5077487;28;20205;-82
2022/03/26 04:32:13;;;;;;;16.87;10.23;;;;;;;6.45;81.38;96898.19;5077900;28;20300;-82
2022/03/26 04:34:40;;;;;;;16.80;10.67;;;;;;;6.45;81.71;96888.28;5081685;28;20380;-82
2022/03/26 04:37:07;;;;;;;14.93;10.47;;;;;;;6.43;81.18;96886.78;5076590;28;20262;-82
2022/03/26 04:39:36;;;;;;;15.03;10.23;;;;;;;6.45;81.84;96895.50;5080785;28;20212;-82
2022/03/26 04:42:05;;;;;;;15.43;10.00;;;;;;;6.41;81.94;96892.34;5079317;28;20202;-82
2022/03/26 04:44:32;;;;;;;17.93;10.50;;;;;;;6.37;81.53;96891.09;5082104;28;20212;-82
2022/03/26 04:46:59;;;;;;;18.57;11.27;;;;;;;6.39;82.38;96901.59;5086920;28;20220;-82
2022/03/26 04:49:26;;;;;;;15.67;11.17;;;;;;;6.22;81.69;96889.44;5068238;28;20236;-82
2022/03/26 04:51:53;;;;;;;16.70;11.20;;;;;;;6.22;81.78;96901.00;5077643;28;20213;-82
2022/03/26 04:54:21;;;;;;;16.97;10.60;;;;;;;6.19;82.90;96903.25;5075260;28;20284;-81
2022/03/26 04:56:49;;;;;;;20.17;11.77;;;;;;;6.16;83.11;96900.94;5068376;28;20259;-82
2022/03/26 04:59:16;;;;;;;16.90;11.07;;;;;;;6.20;83.74;96921.84;5067628;28;20212;-82
2022/03/26 05:01:44;;;;;;;18.07;11.73;;;;;;;6.25;84.32;96927.47;5090047;28;20280;-82
2022/03/26 05:04:11;;;;;;;23.03;13.00;;;;;;;6.14;85.06;96930.63;5081156;28;20201;-82
2022/03/26 05:06:38;;;;;;;20.80;12.90;;;;;;;6.03;86.36;96933.81;5074154;28;20208;-82
2022/03/26 05:09:05;;;;;;;19.77;12.40;;;;;;;6.00;87.36;96936.84;5081081;28;20204;-82
2022/03/26 05:11:33;;;;;;;18.67;11.67;;;;;;;5.91;88.20;96935.28;5081237;28;20298;-82
2022/03/26 05:14:01;;;;;;;18.53;12.13;;;;;;;5.78;89.73;96913.66;5079377;28;20204;-82
2022/03/26 05:16:28;;;;;;;21.80;12.73;;;;;;;5.70;89.76;96922.59;5075748;28;20225;-82
2022/03/26 05:18:55;;;;;;;19.73;13.53;;;;;;;5.60;91.42;96927.44;5071971;28;20193;-81
2022/03/26 05:21:23;;;;;;;20.33;12.20;;;;;;;5.66;91.82;96945.44;5083326;28;20272;-82
2022/03/26 05:23:50;;;;;;;20.63;11.77;;;;;;;5.61;92.55;96939.81;5083669;28;20209;-82
2022/03/26 05:26:18;;;;;;;20.83;13.17;;;;;;;5.63;93.49;96943.94;5077766;28;20244;-81
2022/03/26 05:28:46;;;;;;;21.07;12.07;;;;;;;5.71;92.80;96961.78;5077153;28;20259;-82
2022/03/26 05:31:15;;;;;;;18.03;12.77;;;;;;;5.65;93.87;96949.13;5077219;28;20208;-82
2022/03/26 05:33:42;;;;;;;24.03;12.90;;;;;;;5.69;95.24;96958.47;5076224;28;20201;-82
2022/03/26 05:36:10;;;;;;;20.20;12.83;;;;;;;5.74;95.98;96955.22;5080820;28;20224;-82
2022/03/26 05:38:37;;;;;;;20.80;13.10;;;;;;;5.84;94.78;96961.97;5072563;28;20205;-82
2022/03/26 05:41:05;;;;;;;18.17;12.30;;;;;;;5.87;95.90;96956.22;5070368;28;20246;-82
2022/03/26 05:43:32;;;;;;;18.73;11.70;;;;;;;5.93;96.08;96952.03;5075307;28;20254;-82
2022/03/26 05:45:59;;;;;;;21.40;12.57;;;;;;;5.95;95.98;96958.03;5082395;28;20209;-82
2022/03/26 05:48:28;;;;;;;22.70;13.13;;;;;;;5.96;98.00;96960.50;5075211;28;20293;-83
2022/03/26 05:50:55;;;;;;;19.50;12.93;;;;;;;6.05;98.47;96959.38;5071828;28;20209;-82
2022/03/26 05:53:22;;;;;;;21.40;12.77;;;;;;;6.13;96.85;96966.50;5070518;28;20239;-82
2022/03/26 05:55:49;;;;;;;20.27;11.80;;;;;;;6.14;96.03;96973.50;5084618;28;20231;-82
2022/03/26 05:58:17;;;;;;;27.83;13.97;;;;;;;6.08;94.73;96972.44;5081004;28;20253;-83
2022/03/26 06:00:44;;;;;;;19.90;12.57;;;;;;;6.13;95.58;96977.22;5072691;28;20308;-82
2022/03/26 06:03:11;;;;;;;19.20;12.97;;;;;;;6.16;94.43;96986.75;5081364;28;20202;-83
2022/03/26 06:05:40;;;;;;;21.43;12.27;;;;;;;6.03;94.91;96977.53;5079104;28;20197;-82
2022/03/26 06:08:08;;;;;;;23.13;13.33;;;;;;;6.01;96.34;96974.19;5069048;28;20209;-83
2022/03/26 06:10:36;;;;;;;22.67;12.87;;;;;;;6.00;96.68;96985.09;5075561;28;20212;-83
2022/03/26 06:13:04;;;;;;;18.67;12.97;;;;;;;5.96;96.25;96984.63;5080787;28;20266;-83
2022/03/26 06:15:34;;;;;;;16.63;11.23;;;;;;;5.88;95.89;96997.28;5077969;28;20229;-83
2022/03/26 06:18:01;;;;;;;19.73;11.43;;;;;;;5.84;96.63;97004.84;5069275;28;20206;-83
2022/03/26 06:20:28;;;;;;;19.53;12.57;;;;;;;5.83;97.53;97003.19;5073434;28;20208;-83
2022/03/26 06:22:56;;;;;;;18.93;12.63;;;;;;;5.90;97.09;96997.94;5081671;28;20213;-83
2022/03/26 06:25:23;;;;;;;19.70;12.07;;;;;;;6.00;96.57;96999.34;5075430;28;20232;-83
2022/03/26 06:27:51;;;;;;;21.37;13.30;;;;;;;6.04;96.52;97000.63;5082875;28;20216;-83
2022/03/26 06:30:18;;;;;;;20.03;12.63;;;;;;;5.91;97.54;97000.44;5071916;28;20220;-83
2022/03/26 06:32:45;;;;;;;19.97;12.63;;;;;;;5.95;97.99;97012.47;5079173;28;20205;-83
2022/03/26 06:35:12;;;;;;;24.33;12.53;;;;;;;5.93;98.34;97013.66;5077382;28;20220;-84
2022/03/26 06:37:40;;;;;;;19.20;12.13;;;;;;;6.02;98.37;97017.91;5079139;28;20216;-83
2022/03/26 06:40:10;;;;;;;16.73;11.37;;;;;;;6.06;97.72;97022.72;5086384;28;20201;-83
2022/03/26 06:42:37;;;;;;;22.50;13.57;;;;;;;6.04;98.12;97022.06;5072990;28;20296;-83
2022/03/26 06:45:04;;;;;;;21.70;12.23;;;;;;;6.08;98.68;97023.38;5081545;28;20213;-84
2022/03/26 06:47:32;;;;;;;19.27;12.77;;;;;;;6.04;99.16;97021.22;5075216;28;20209;-83
2022/03/26 06:49:59;;;;;;;18.67;12.40;;;;;;;6.04;99.53;97026.59;5072672;28;20216;-83
2022/03/26 06:52:26;;;;;;;22.43;12.97;;;;;;;6.09;98.79;97034.94;5075941;28;20327;-83
2022/03/26 06:54:53;;;;;;;19.53;12.70;;;;;;;6.06;98.32;97036.13;5074976;28;20210;-83
2022/03/26 06:57:22;;;;;;;20.87;12.57;;;;;;;6.05;99.75;97031.78;5074705;28;20220;-83
2022/03/26 06:59:49;;;;;;;18.07;12.27;;;;;;;6.08;98.98;97033.25;5075554;28;20200;-83
2022/03/26 07:02:16;;;;;;;22.07;14.63;;;;;;;6.04;99.55;97035.47;5079765;28;20316;-83
2022/03/26 07:04:43;;;;;;;19.97;12.53;;;;;;;6.11;99.82;97038.25;5074433;28;20301;-83
2022/03/26 07:07:13;;;;;;;21.40;13.67;;;;;;;6.06;99.75;97028.06;5079901;28;20278;-83
2022/03/26 07:09:40;;;;;;;18.03;12.63;;;;;;;6.15;100.00;97034.19;5069995;28;20209;-83
2022/03/26 07:12:08;;;;;;;21.50;13.10;;;;;;;6.19;100.00;97035.47;5081233;28;20312;-83
2022/03/26 07:14:36;;;;;;;19.67;13.70;;;;;;;6.27;99.83;97042.59;5081925;28;20231;-83
2022/03/26 07:17:03;;;;;;;18.40;12.37;;;;;;;6.27;99.66;97037.22;5087809;28;20237;-83
2022/03/26 07:19:31;;;;;;;23.07;14.23;;;;;;;6.30;100.00;97039.50;5082295;28;20197;-83
2022/03/26 07:21:59;;;;;;;20.80;13.03;;;;;;;6.37;100.00;97048.50;5075985;28;20209;-83
2022/03/26 07:24:26;;;;;;;21.00;12.80;;;;;;;6.38;100.00;97037.56;5082395;28;20203;-83
2022/03/26 07:26:53;;;;;;;21.33;12.93;;;;;;;6.40;100.00;97038.22;5074958;28;20216;-83
2022/03/26 07:29:20;;;;;;;20.83;14.90;;;;;;;6.43;100.00;97031.66;5075219;28;20193;-84
2022/03/26 07:31:49;;;;;;;24.43;15.40;;;;;;;6.43;100.00;97028.97;5076789;28;20206;-83
2022/03/26 07:34:17;;;;;;;21.33;14.40;;;;;;;6.37;100.00;97017.16;5079725;28;20209;-83
2022/03/26 07:36:44;;;;;;;26.67;16.03;;;;;;;6.38;100.00;97018.78;5069939;28;20233;-83
2022/03/26 07:39:12;;;;;;;23.03;15.23;;;;;;;6.44;100.00;97023.44;5084101;28;20206;-83
2022/03/26 07:41:40;;;;;;;28.13;15.83;;;;;;;6.47;100.00;97012.31;5082302;28;20211;-83
2022/03/26 07:44:08;;;;;;;23.13;15.00;;;;;;;6.58;100.00;97012.84;5072130;28;20215;-83
2022/03/26 07:46:35;;;;;;;24.37;16.03;;;;;;;6.50;100.00;97010.25;5072003;28;20197;-83
2022/03/26 07:49:05;;;;;;;28.30;15.80;;;;;;;6.49;100.00;97009.44;5079194;28;20201;-83
2022/03/26 07:51:32;;;;;;;21.53;14.37;;;;;;;6.47;100.00;97003.41;5081890;28;20266;-84
2022/03/26 07:53:59;;;;;;;25.07;15.00;;;;;;;6.52;100.00;96994.81;5075185;28;20227;-83
2022/03/26 07:56:27;;;;;;;26.20;16.40;;;;;;;6.52;100.00;96995.66;5076190;28;20228;-83
2022/03/26 07:58:54;;;;;;;25.13;16.90;;;;;;;6.62;100.00;96990.81;5071638;28;20213;-84
2022/03/26 08:01:21;;;;;;;26.47;17.40;;;;;;;6.69;100.00;97002.44;5075474;28;20229;-83
2022/03/26 08:03:53;;;;;;;23.50;14.67;;;;;;;6.68;100.00;96986.53;5068594;28;20210;-83
2022/03/26 08:06:22;;;;;;;23.10;15.00;;;;;;;6.78;100.00;96992.44;5079985;28;20209;-83
2022/03/26 08:08:49;;;;;;;22.77;14.87;;;;;;;6.86;100.00;96989.63;5071302;28;20207;-83
2022/03/26 08:11:16;;;;;;;23.97;14.23;;;;;;;6.89;100.00;96985.72;5072303;28;20233;-83
2022/03/26 08:13:43;;;;;;;24.97;15.37;;;;;;;7.05;100.00;96993.53;5076192;28;20215;-83
2022/03/26 08:16:10;;;;;;;18.27;13.30;;;;;;;7.15;100.00;97004.75;5068033;28;20284;-83
2022/03/26 08:18:38;;;;;;;22.20;14.00;;;;;;;7.34;100.00;96997.88;5083075;28;20208;-84
2022/03/26 08:21:05;;;;;;;20.67;14.37;;;;;;;7.71;100.00;97002.13;5079429;28;20213;-85
2022/03/26 08:23:34;;;;;;;22.43;14.83;;;;;;;8.07;98.27;96996.53;5075293;28;20225;-83
2022/03/26 08:28:45;;;;;;;21.73;14.47;;;;;;;8.79;92.15;97002.25;5084005;28;20212;-83
2022/03/26 08:31:13;;;;;;;23.93;15.27;;;;;;;9.13;90.58;96986.97;5075307;28;20208;-83
2022/03/26 08:33:40;;;;;;;21.87;14.77;;;;;;;9.44;86.42;96998.00;5077082;28;20220;-84
2022/03/26 08:36:08;;;;;;;21.87;14.50;;;;;;;9.64;83.39;96988.03;5077824;28;20221;-83
2022/03/26 08:38:36;;;;;;;27.70;15.53;;;;;;;9.99;81.30;96998.56;5077851;28;20236;-83
2022/03/26 08:41:03;;;;;;;27.90;16.23;;;;;;;10.39;79.54;96996.59;5074625;28;20199;-83
2022/03/26 08:43:31;;;;;;;18.83;13.80;;;;;;;10.61;76.24;96988.00;5070411;28;20201;-84
2022/03/26 08:45:58;;;;;;;21.97;14.70;;;;;;;10.77;74.54;96993.97;5079521;28;20232;-84
2022/03/26 08:48:25;;;;;;;20.60;14.07;;;;;;;10.86;75.15;96992.66;5076077;28;20201;-84
2022/03/26 08:50:52;;;;;;;19.77;13.97;;;;;;;10.94;74.07;96985.13;5080494;28;20193;-84
2022/03/26 08:53:20;;;;;;;22.43;14.00;;;;;;;11.01;75.74;96985.09;5070896;28;20205;-83
2022/03/26 08:55:49;;;;;;;21.07;14.33;;;;;;;11.18;74.12;96986.22;5069380;28;20217;-82
2022/03/26 08:58:17;;;;;;;22.63;14.70;;;;;;;11.35;73.64;96981.94;5069183;28;20201;-84
2022/03/26 09:00:45;;;;;;;20.17;14.03;;;;;;;11.58;71.60;96965.09;5072209;28;20528;-84
2022/03/26 09:03:12;;;;;;;24.23;14.97;;;;;;;11.79;68.00;96954.97;5076448;28;20224;-84
2022/03/26 09:05:39;;;;;;;18.60;13.87;;;;;;;11.98;69.97;96964.78;5076417;28;20209;-84
2022/03/26 09:08:07;;;;;;;21.50;15.20;;;;;;;12.11;70.19;96970.88;5074194;28;20237;-84
2022/03/26 09:10:35;;;;;;;20.67;14.73;;;;;;;12.14;69.87;96966.88;5076988;28;20235;-84
2022/03/26 09:13:03;;;;;;;22.07;14.80;;;;;;;12.13;68.92;96943.56;5078445;28;20205;-87
2022/03/26 09:15:30;;;;;;;20.47;14.30;;;;;;;12.00;68.87;96946.41;5078838;28;20235;-83
2022/03/26 09:17:58;;;;;;;22.63;15.27;;;;;;;12.20;65.42;96946.19;5071660;28;20221;-84
2022/03/26 09:20:25;;;;;;;19.63;14.03;;;;;;;12.24;65.42;96960.97;5072938;28;20409;-83
2022/03/26 09:22:52;;;;;;;26.03;15.40;;;;;;;12.44;65.74;96948.00;5083968;28;20191;-84
2022/03/26 09:25:20;;;;;;;20.20;15.13;;;;;;;12.62;62.86;96957.97;5079174;28;20206;-84
2022/03/26 09:27:47;;;;;;;19.47;14.33;;;;;;;12.76;62.92;96957.56;5074620;28;20229;-84
2022/03/26 09:30:16;;;;;;;24.03;14.97;;;;;;;13.12;62.69;96962.06;5080959;28;20222;-84
2022/03/26 09:32:44;;;;;;;25.37;15.07;;;;;;;13.33;60.62;96968.88;5073351;28;20205;-83
2022/03/26 09:35:12;;;;;;;18.73;14.17;;;;;;;13.49;59.66;96967.38;5084512;28;20205;-83
2022/03/26 09:37:40;;;;;;;21.60;14.63;;;;;;;13.61;56.36;96960.91;5072391;28;20221;-83
2022/03/26 09:40:09;;;;;;;26.63;16.83;;;;;;;13.48;56.04;96961.13;5078038;28;20212;-83
2022/03/26 09:42:37;;;;;;;25.83;16.20;;;;;;;13.45;56.95;96956.16;5077336;28;20210;-83
2022/03/26 09:45:06;;;;;;;25.40;16.23;;;;;;;13.47;58.99;96959.47;5074893;28;20538;-84
2022/03/26 09:47:35;;;;;;;23.33;15.63;;;;;;;13.38;56.32;96960.88;5071593;28;20205;-84
2022/03/26 09:50:04;;;;;;;25.27;15.80;;;;;;;13.91;52.59;96965.41;5071096;28;20197;-84
2022/03/26 09:52:33;;;;;;;23.80;15.80;;;;;;;13.97;55.79;96965.28;5073360;28;20224;-83
2022/03/26 09:55:00;;;;;;;28.00;16.87;;;;;;;13.80;55.54;96958.06;5072261;28;20206;-83
2022/03/26 09:57:27;;;;;;;25.90;17.20;;;;;;;14.03;53.81;96958.91;5079072;28;20240;-84
2022/03/26 09:59:55;;;;;;;24.17;15.27;;;;;;;13.98;48.25;96960.69;5082891;28;20192;-84
2022/03/26 10:02:22;;;;;;;25.43;16.57;;;;;;;14.15;51.72;96963.50;5084629;28;20208;-83
2022/03/26 10:04:51;;;;;;;23.60;15.93;;;;;;;14.35;49.61;96940.34;5075131;28;20197;-83
2022/03/26 10:07:18;;;;;;;27.00;14.73;;;;;;;14.79;47.49;96973.34;5077561;28;20236;-86
2022/03/26 10:09:46;;;;;;;22.67;14.57;;;;;;;15.23;43.27;96960.00;5074758;28;20206;-84
2022/03/26 10:12:18;;;;;;;25.60;15.87;;;;;;;15.32;47.07;96951.19;5072569;28;20233;-84
2022/03/26 10:14:47;;;;;;;25.43;16.47;;;;;;;15.40;44.91;96958.94;5080498;28;20215;-84
2022/03/26 10:17:18;;;;;;;24.60;16.80;;;;;;;15.54;44.48;96964.94;5080467;28;20236;-84
2022/03/26 10:22:39;;;;;;;25.40;17.67;;;;;;;15.94;45.26;96963.94;5079082;27;20578;-84
2022/03/26 10:25:08;;;;;;;22.20;15.77;;;;;;;15.83;43.26;96946.59;5099338;28;20214;-83
2022/03/26 10:27:38;;;;;;;16.43;11.73;;;;;;;16.85;24.25;96933.28;5071482;28;20239;-84
2022/03/26 10:30:07;;;;;;;16.87;12.00;;;;;;;17.66;21.55;96941.50;5058480;28;20289;-84
2022/03/26 10:32:39;;;;;;;16.70;12.87;;;;;;;18.29;23.96;96943.28;5057240;28;20263;-84
2022/03/26 10:35:11;;;;;;;15.67;12.07;;;;;;;18.68;21.34;96943.81;5055287;28;20218;-83
2022/03/26 10:37:53;;;;;;;21.93;15.97;;;;;;;18.79;35.44;96955.63;5084212;28;20214;-84
2022/03/26 10:40:24;;;;;;;18.90;12.63;;;;;;;18.20;25.15;96946.81;5054367;28;20297;-83
2022/03/26 10:42:56;;;;;;;17.33;11.47;;;;;;;18.58;19.14;96923.78;5054227;28;20209;-83
2022/03/26 10:45:23;;;;;;;21.13;14.70;;;;;;;18.86;28.52;96948.81;5052984;28;20229;-83
2022/03/26 10:47:53;;;;;;;25.27;17.23;;;;;;;18.68;35.87;96946.53;5073611;28;20205;-84
2022/03/26 10:50:21;;;;;;;28.90;18.03;;;;;;;18.53;37.31;96936.31;5063235;28;20287;-83
2022/03/26 10:52:49;;;;;;;16.67;11.90;;;;;;;18.70;20.45;96930.69;5057469;28;20202;-84
2022/03/26 10:55:19;;;;;;;16.93;11.80;;;;;;;19.15;18.31;96940.09;5077825;28;20202;-83
2022/03/26 10:57:48;;;;;;;17.17;11.60;;;;;;;19.51;17.95;96916.38;5058906;28;20206;-84
2022/03/26 11:00:16;;;;;;;16.87;12.23;;;;;;;19.74;17.72;96921.31;5056066;28;20271;-84
2022/03/26 11:02:44;;;;;;;17.20;12.33;;;;;;;19.79;16.84;96925.97;5089794;28;20286;-84
2022/03/26 11:05:12;;;;;;;18.50;13.90;;;;;;;19.77;17.31;96919.94;5054534;28;20458;-83
2022/03/26 11:07:41;;;;;;;15.68;12.43;;;;;;;20.14;17.55;96914.97;5053274;28;20292;-84
2022/03/26 11:10:12;;;;;;;15.73;11.57;;;;;;;20.24;17.60;96920.44;5056190;28;20206;-83
2022/03/26 11:12:45;;;;;;;16.63;11.80;;;;;;;20.19;17.00;96922.34;5078969;28;20209;-83
2022/03/26 11:15:17;;;;;;;15.30;11.55;;;;;;;19.71;16.44;96921.03;5058145;28;20245;-83
2022/03/26 11:17:58;;;;;;;15.97;11.70;;;;;;;19.79;16.58;96920.50;5055212;28;20210;-83
2022/03/26 11:20:39;;;;;;;17.33;11.83;;;;;;;19.87;16.47;96906.22;5048332;28;20261;-83
2022/03/26 11:23:22;;;;;;;14.73;11.43;;;;;;;20.08;16.14;96905.09;5051744;28;20206;-83
2022/03/26 11:26:05;;;;;;;16.93;11.90;;;;;;;20.08;16.76;96909.75;5049305;28;20205;-82
2022/03/26 11:28:42;;;;;;;16.35;12.05;;;;;;;20.32;16.47;96911.63;5053985;28;20212;-83
2022/03/26 11:31:16;;;;;;;17.95;12.23;;;;;;;20.59;16.79;96903.03;5050165;28;20194;-83
2022/03/26 11:33:48;;;;;;;14.60;10.68;;;;;;;20.66;16.48;96897.28;5038688;28;20198;-83